Terminal Aerodrome Forecast
Issued by NWS Sterling, VA

Current Version | Previous Version | Graphics & Text | Print | Product List | Glossary On
Versions: 1 2 3 4 5 6 7 8 9 10 11 12 13 14 15 16 17 18 19 20 21 22 23 24 25 26 27 28
000
FTUS41 KLWX 152000 AAB
TAFDCA
TAF AMD
KDCA 152055Z 1521/1618 34020G32KT 5SM -RA SCT015 OVC040
     FM152300 34020G32KT 5SM -RASN SCT020 OVC040
     FM160100 33020G32KT P6SM SCT030 OVC050
     FM160400 33020G30KT P6SM FEW040 SCT250
     FM161000 33014KT P6SM SKC
     FM161700 01011KT P6SM SKC=

USA.gov is the U.S. government's official web portal to all federal, state and local government web resources and services.